Time;durP1;ratioP1;P1;durP2;ratioP2;P2;SDS_P1;SDS_P2;PMS_P1;PMS_P2;Temp;Humidity;BMP_temperature;BMP_pressure;BME280_temperature;BME280_humidity;BME280_pressure;Samples;Min_cycle;Max_cycle;Signal;HPM_P1;HPM_P2
2023/08/12 00:00:19;;;;;;;4.07;2.38;;;;;;;;;;5111356;28;20073;-67
2023/08/12 00:02:45;;;;;;;4.03;2.50;;;;;;;;;;5111479;28;20043;-67
2023/08/12 00:05:12;;;;;;;5.05;2.50;;;;;;;;;;5111029;28;20121;-67
2023/08/12 00:07:38;;;;;;;4.38;2.58;;;;;;;;;;5110083;28;20925;-67
2023/08/12 00:10:05;;;;;;;5.78;2.42;;;;;;;;;;5111490;28;20075;-67
2023/08/12 00:12:34;;;;;;;6.75;3.17;;;;;;;;;;5110940;28;20095;-67
2023/08/12 00:15:00;;;;;;;5.82;2.72;;;;;;;;;;5111416;28;20044;-67
2023/08/12 00:17:26;;;;;;;6.25;3.70;;;;;;;;;;5111326;28;20520;-67
2023/08/12 00:19:52;;;;;;;6.65;3.45;;;;;;;;;;5111043;28;20055;-67
2023/08/12 00:22:18;;;;;;;8.48;3.90;;;;;;;;;;5109815;28;20524;-67
2023/08/12 00:24:44;;;;;;;8.05;3.88;;;;;;;;;;5109684;28;20101;-67
2023/08/12 00:27:11;;;;;;;6.18;3.85;;;;;;;;;;5110762;28;20444;-67
2023/08/12 00:29:37;;;;;;;7.60;4.43;;;;;;;;;;5111311;28;20609;-67
2023/08/12 00:32:03;;;;;;;5.38;3.70;;;;;;;;;;5111285;28;20425;-67
2023/08/12 00:34:29;;;;;;;6.55;4.30;;;;;;;;;;5111028;28;20066;-67
2023/08/12 00:36:56;;;;;;;8.43;4.55;;;;;;;;;;5111061;28;20377;-67
2023/08/12 00:39:22;;;;;;;10.63;4.20;;;;;;;;;;5111388;28;20436;-67
2023/08/12 00:41:48;;;;;;;8.88;5.05;;;;;;;;;;5111035;28;20043;-67
2023/08/12 00:44:14;;;;;;;7.30;4.80;;;;;;;;;;5110463;28;20123;-67
2023/08/12 00:46:41;;;;;;;8.57;4.88;;;;;;;;;;5115024;28;20074;-67
2023/08/12 00:49:08;;;;;;;9.38;4.85;;;;;;;;;;5114907;28;20047;-67
2023/08/12 00:51:35;;;;;;;9.13;4.47;;;;;;;;;;5114768;28;20485;-67
2023/08/12 00:54:03;;;;;;;6.65;4.35;;;;;;;;;;5114796;28;20039;-67
2023/08/12 00:56:29;;;;;;;7.15;4.72;;;;;;;;;;5115004;28;20385;-67
2023/08/12 00:58:56;;;;;;;8.13;4.70;;;;;;;;;;5114770;28;20386;-67
2023/08/12 01:01:22;;;;;;;7.90;4.55;;;;;;;;;;5114823;28;20036;-67
2023/08/12 01:03:48;;;;;;;7.20;4.93;;;;;;;;;;5114620;28;20480;-67
2023/08/12 01:06:14;;;;;;;9.90;5.70;;;;;;;;;;5114450;28;20039;-67
2023/08/12 01:08:40;;;;;;;9.88;5.97;;;;;;;;;;5103006;28;20044;-67
2023/08/12 01:11:21;;;;;;;9.88;6.18;;;;;;;;;;5094696;28;20832;-67
2023/08/12 01:14:10;;;;;;;8.63;6.13;;;;;;;;;;5093514;28;20060;-67
2023/08/12 01:16:39;;;;;;;8.07;5.82;;;;;;;;;;5093533;27;20048;-67
2023/08/12 01:19:07;;;;;;;9.23;6.22;;;;;;;;;;5094191;28;20058;-67
2023/08/12 01:21:34;;;;;;;13.43;7.07;;;;;;;;;;5093810;28;20044;-67
2023/08/12 01:24:00;;;;;;;8.55;5.95;;;;;;;;;;5094157;28;20113;-67
2023/08/12 01:26:26;;;;;;;10.13;6.97;;;;;;;;;;5104980;28;20035;-67
2023/08/12 01:28:52;;;;;;;10.95;6.80;;;;;;;;;;5114286;28;20047;-67
2023/08/12 01:31:28;;;;;;;11.40;6.60;;;;;;;;;;5114444;28;20085;-67
2023/08/12 01:34:06;;;;;;;11.48;6.95;;;;;;;;;;5146868;27;20079;-67
2023/08/12 01:36:35;;;;;;;11.23;7.25;;;;;;;;;;5114200;28;20062;-67
2023/08/12 01:39:01;;;;;;;11.27;7.13;;;;;;;;;;5114268;28;20107;-67
2023/08/12 01:41:28;;;;;;;10.45;7.00;;;;;;;;;;5113516;28;20054;-67
2023/08/12 01:43:55;;;;;;;10.18;7.07;;;;;;;;;;5114072;28;20101;-67
2023/08/12 01:46:22;;;;;;;12.40;7.47;;;;;;;;;;5113826;28;20074;-67
2023/08/12 01:48:48;;;;;;;13.43;7.25;;;;;;;;;;5113549;28;20036;-67
2023/08/12 01:51:14;;;;;;;12.50;7.65;;;;;;;;;;5114067;28;20418;-67
2023/08/12 01:53:40;;;;;;;9.05;6.72;;;;;;;;;;5113527;28;20051;-67
2023/08/12 01:56:06;;;;;;;11.48;7.32;;;;;;;;;;5113177;28;20047;-67
2023/08/12 01:58:32;;;;;;;10.75;7.32;;;;;;;;;;5113771;28;20042;-67
2023/08/12 02:00:58;;;;;;;10.63;7.82;;;;;;;;;;5113676;28;20093;-67
2023/08/12 02:03:24;;;;;;;11.32;7.75;;;;;;;;;;5112899;28;20089;-67
2023/08/12 02:05:50;;;;;;;13.90;8.27;;;;;;;;;;5113517;28;20032;-66
2023/08/12 02:08:16;;;;;;;13.68;7.47;;;;;;;;;;5113427;28;20038;-66
2023/08/12 02:10:42;;;;;;;14.52;8.32;;;;;;;;;;5113376;28;20400;-66
2023/08/12 02:13:08;;;;;;;11.90;8.00;;;;;;;;;;5112971;28;20079;-66
2023/08/12 02:15:34;;;;;;;12.80;8.93;;;;;;;;;;5113579;28;20087;-66
2023/08/12 02:18:00;;;;;;;14.45;8.88;;;;;;;;;;5113675;28;20047;-66
2023/08/12 02:20:26;;;;;;;12.50;9.10;;;;;;;;;;5113069;28;20050;-66
2023/08/12 02:22:52;;;;;;;12.93;9.25;;;;;;;;;;5112008;28;20425;-66
2023/08/12 02:25:18;;;;;;;15.93;9.00;;;;;;;;;;5112766;28;20043;-66
2023/08/12 02:27:44;;;;;;;12.77;9.00;;;;;;;;;;5112326;28;20123;-66
2023/08/12 02:30:10;;;;;;;16.30;10.65;;;;;;;;;;5113053;28;20123;-66
2023/08/12 02:32:36;;;;;;;17.70;10.20;;;;;;;;;;5112626;28;20097;-66
2023/08/12 02:35:03;;;;;;;14.30;10.40;;;;;;;;;;5112217;28;20124;-66
2023/08/12 02:37:29;;;;;;;14.45;9.48;;;;;;;;;;5113020;28;20043;-66
2023/08/12 02:39:55;;;;;;;12.40;8.75;;;;;;;;;;5113053;28;20039;-66
2023/08/12 02:42:21;;;;;;;16.90;9.05;;;;;;;;;;5112163;28;20118;-66
2023/08/12 02:44:47;;;;;;;13.95;9.27;;;;;;;;;;5112869;28;20078;-66
2023/08/12 02:47:13;;;;;;;12.90;9.40;;;;;;;;;;5112854;28;20042;-66
2023/08/12 02:49:39;;;;;;;12.65;9.18;;;;;;;;;;5112643;28;20047;-66
2023/08/12 02:52:05;;;;;;;15.82;10.43;;;;;;;;;;5128530;27;20052;-66
2023/08/12 02:54:31;;;;;;;13.88;9.82;;;;;;;;;;5112658;28;20478;-66
2023/08/12 02:56:57;;;;;;;11.70;9.15;;;;;;;;;;5112523;28;20092;-66
2023/08/12 02:59:25;;;;;;;14.35;9.38;;;;;;;;;;5112582;28;20127;-66
2023/08/12 03:01:51;;;;;;;15.40;9.35;;;;;;;;;;5112357;28;20043;-66
2023/08/12 03:04:17;;;;;;;14.85;9.60;;;;;;;;;;5112030;28;20097;-66
2023/08/12 03:06:43;;;;;;;16.20;10.07;;;;;;;;;;5111090;28;20044;-66
2023/08/12 03:09:09;;;;;;;14.57;9.27;;;;;;;;;;5096284;28;20042;-66
2023/08/12 03:11:35;;;;;;;14.45;9.57;;;;;;;;;;5091637;28;20040;-66
2023/08/12 03:14:01;;;;;;;13.77;9.82;;;;;;;;;;5091279;28;20063;-66
2023/08/12 03:16:27;;;;;;;11.30;8.98;;;;;;;;;;5091787;28;20127;-66
2023/08/12 03:18:53;;;;;;;14.05;10.00;;;;;;;;;;5091325;28;20048;-66
2023/08/12 03:21:19;;;;;;;14.38;9.57;;;;;;;;;;5091820;28;20081;-66
2023/08/12 03:23:45;;;;;;;14.60;10.50;;;;;;;;;;5091316;28;20044;-66
2023/08/12 03:26:11;;;;;;;16.33;9.57;;;;;;;;;;5100434;28;20093;-66
2023/08/12 03:28:37;;;;;;;13.45;9.48;;;;;;;;;;5111840;28;20038;-66
2023/08/12 03:31:03;;;;;;;13.93;10.18;;;;;;;;;;5111941;28;20032;-66
2023/08/12 03:33:31;;;;;;;15.88;10.57;;;;;;;;;;5111300;28;20082;-66
2023/08/12 03:35:57;;;;;;;12.77;9.65;;;;;;;;;;5111479;28;20362;-66
2023/08/12 03:38:24;;;;;;;13.68;9.30;;;;;;;;;;5111693;28;20078;-66
2023/08/12 03:40:50;;;;;;;12.07;9.15;;;;;;;;;;5111101;28;20076;-66
2023/08/12 03:43:16;;;;;;;14.38;10.30;;;;;;;;;;5111453;28;20040;-66
2023/08/12 03:45:45;;;;;;;15.23;10.65;;;;;;;;;;5111602;28;20119;-66
2023/08/12 03:48:11;;;;;;;14.07;10.77;;;;;;;;;;5111058;28;20126;-66
2023/08/12 03:50:38;;;;;;;13.27;10.65;;;;;;;;;;5111553;28;20066;-66
2023/08/12 03:53:04;;;;;;;21.58;10.77;;;;;;;;;;5111487;28;20039;-66
2023/08/12 03:55:32;;;;;;;18.52;10.43;;;;;;;;;;5111119;28;20119;-66
2023/08/12 03:57:58;;;;;;;15.77;10.95;;;;;;;;;;5111677;28;20031;-66
2023/08/12 04:00:24;;;;;;;15.68;10.00;;;;;;;;;;5111274;28;20063;-66
2023/08/12 04:02:50;;;;;;;14.45;9.50;;;;;;;;;;5110693;28;20504;-66
2023/08/12 04:05:16;;;;;;;16.55;10.38;;;;;;;;;;5111362;28;20041;-66
2023/08/12 04:07:42;;;;;;;17.58;10.85;;;;;;;;;;5107767;28;20040;-66
2023/08/12 04:10:09;;;;;;;14.57;10.05;;;;;;;;;;5090746;28;20028;-66
2023/08/12 04:12:35;;;;;;;17.75;11.35;;;;;;;;;;5090603;28;20164;-66
2023/08/12 04:15:04;;;;;;;14.10;10.25;;;;;;;;;;5090769;28;20520;-66
2023/08/12 04:17:30;;;;;;;18.73;11.23;;;;;;;;;;5090701;28;20051;-66
2023/08/12 04:19:56;;;;;;;16.67;11.80;;;;;;;;;;5092044;28;20490;-66
2023/08/12 04:22:22;;;;;;;14.68;10.50;;;;;;;;;;5128018;27;20087;-66
2023/08/12 04:24:48;;;;;;;12.95;9.25;;;;;;;;;;5094633;28;20398;-66
2023/08/12 04:27:16;;;;;;;13.73;10.20;;;;;;;;;;5112976;28;20050;-66
2023/08/12 04:29:42;;;;;;;16.55;10.05;;;;;;;;;;5115204;28;20626;-66
2023/08/12 04:32:08;;;;;;;16.45;10.70;;;;;;;;;;5114840;28;20043;-66
2023/08/12 04:34:34;;;;;;;16.95;11.05;;;;;;;;;;5115070;28;20050;-66
2023/08/12 04:37:00;;;;;;;15.05;10.90;;;;;;;;;;5115058;28;20128;-66
2023/08/12 04:39:27;;;;;;;17.80;10.38;;;;;;;;;;5114790;28;20589;-66
2023/08/12 04:41:53;;;;;;;14.48;11.50;;;;;;;;;;5115064;28;20417;-66
2023/08/12 04:44:19;;;;;;;17.38;10.48;;;;;;;;;;5114863;28;20040;-66
2023/08/12 04:46:45;;;;;;;17.15;12.27;;;;;;;;;;5114623;28;20039;-66
2023/08/12 04:49:11;;;;;;;17.17;12.15;;;;;;;;;;5114869;28;20526;-66
2023/08/12 04:51:37;;;;;;;17.58;12.23;;;;;;;;;;5114808;28;20051;-66
2023/08/12 04:54:04;;;;;;;17.08;11.77;;;;;;;;;;5113110;28;20570;-66
2023/08/12 04:56:30;;;;;;;17.88;12.68;;;;;;;;;;5114804;28;20397;-66
2023/08/12 04:58:56;;;;;;;17.77;10.98;;;;;;;;;;5113544;28;20044;-66
2023/08/12 05:01:23;;;;;;;13.70;10.05;;;;;;;;;;5114350;28;20454;-66
2023/08/12 05:03:49;;;;;;;15.20;11.25;;;;;;;;;;5114601;28;20093;-66
2023/08/12 05:06:15;;;;;;;16.17;11.02;;;;;;;;;;5114601;28;20032;-66
2023/08/12 05:08:41;;;;;;;16.90;11.32;;;;;;;;;;5114216;28;20122;-66
2023/08/12 05:11:07;;;;;;;17.75;11.50;;;;;;;;;;5114800;28;20493;-66
2023/08/12 05:13:33;;;;;;;20.83;11.80;;;;;;;;;;5113432;28;20051;-66
2023/08/12 05:15:59;;;;;;;17.10;11.10;;;;;;;;;;5112961;28;20047;-66
2023/08/12 05:18:26;;;;;;;14.25;10.73;;;;;;;;;;5113000;28;20447;-66
2023/08/12 05:20:53;;;;;;;16.85;10.57;;;;;;;;;;5113107;28;20067;-66
2023/08/12 05:23:20;;;;;;;20.52;13.13;;;;;;;;;;5112522;28;20123;-66
2023/08/12 05:25:46;;;;;;;16.67;11.80;;;;;;;;;;5113038;28;20428;-66
2023/08/12 05:28:12;;;;;;;22.55;12.50;;;;;;;;;;5113122;28;20078;-66
2023/08/12 05:30:38;;;;;;;21.15;12.68;;;;;;;;;;5112203;28;20476;-66
2023/08/12 05:33:05;;;;;;;18.30;11.70;;;;;;;;;;5112914;28;20035;-66
2023/08/12 05:35:34;;;;;;;16.17;11.90;;;;;;;;;;5112507;28;20055;-66
2023/08/12 05:38:00;;;;;;;20.77;12.38;;;;;;;;;;5112566;28;20084;-66
2023/08/12 05:40:27;;;;;;;24.92;12.70;;;;;;;;;;5113033;28;20039;-66
2023/08/12 05:42:53;;;;;;;21.52;13.40;;;;;;;;;;5112916;28;20047;-66
2023/08/12 05:45:19;;;;;;;17.98;11.65;;;;;;;;;;5112642;28;20063;-66
2023/08/12 05:47:45;;;;;;;22.75;13.88;;;;;;;;;;5112683;28;20430;-66
2023/08/12 05:50:11;;;;;;;21.15;13.15;;;;;;;;;;5113009;28;20156;-66
2023/08/12 05:52:37;;;;;;;20.23;13.05;;;;;;;;;;5112852;28;20482;-66
2023/08/12 05:55:03;;;;;;;19.90;12.75;;;;;;;;;;5112426;28;20039;-66
2023/08/12 05:57:29;;;;;;;22.90;13.27;;;;;;;;;;5112675;28;20061;-66
2023/08/12 05:59:55;;;;;;;21.83;14.43;;;;;;;;;;5112698;28;20484;-66
2023/08/12 06:02:21;;;;;;;23.85;14.13;;;;;;;;;;5112316;28;20035;-66
2023/08/12 06:04:47;;;;;;;18.88;12.95;;;;;;;;;;5112579;28;20039;-66
2023/08/12 06:07:13;;;;;;;20.73;13.50;;;;;;;;;;5112567;28;20038;-66
2023/08/12 06:09:39;;;;;;;18.90;13.10;;;;;;;;;;5092028;28;20039;-66
2023/08/12 06:12:06;;;;;;;19.90;13.92;;;;;;;;;;5086534;28;1042795;-66
2023/08/12 06:14:32;;;;;;;18.45;13.35;;;;;;;;;;5092964;28;20048;-66
2023/08/12 06:16:58;;;;;;;20.67;14.95;;;;;;;;;;5125535;27;20528;-66
2023/08/12 06:19:24;;;;;;;23.45;16.20;;;;;;;;;;5092763;28;20312;-66
2023/08/12 06:21:50;;;;;;;22.35;16.15;;;;;;;;;;5125985;27;20039;-66
2023/08/12 06:24:16;;;;;;;23.77;15.93;;;;;;;;;;5092516;28;20039;-66
2023/08/12 06:26:42;;;;;;;28.67;16.65;;;;;;;;;;5106423;28;20035;-66
2023/08/12 06:29:08;;;;;;;23.88;14.63;;;;;;;;;;5113159;28;20085;-66
2023/08/12 06:31:34;;;;;;;26.08;16.05;;;;;;;;;;5112791;28;20123;-66
2023/08/12 06:34:00;;;;;;;27.45;17.73;;;;;;;;;;5112854;28;20071;-66
2023/08/12 06:36:26;;;;;;;25.10;16.00;;;;;;;;;;5112917;28;20089;-66
2023/08/12 06:38:53;;;;;;;25.80;16.98;;;;;;;;;;5112594;28;20075;-66
2023/08/12 06:41:19;;;;;;;24.45;16.63;;;;;;;;;;5112915;28;20039;-66
2023/08/12 06:43:45;;;;;;;28.83;16.90;;;;;;;;;;5111907;28;20488;-66
2023/08/12 06:46:11;;;;;;;32.53;17.85;;;;;;;;;;5112261;28;20062;-66
2023/08/12 06:48:37;;;;;;;23.35;16.92;;;;;;;;;;5112862;28;20036;-66
2023/08/12 06:51:10;;;;;;;27.08;17.25;;;;;;;;;;5112757;28;20435;-66
2023/08/12 06:53:36;;;;;;;27.50;17.48;;;;;;;;;;5112218;28;20044;-66
2023/08/12 06:56:02;;;;;;;26.33;17.38;;;;;;;;;;5112959;28;20084;-66
2023/08/12 06:58:28;;;;;;;24.38;17.00;;;;;;;;;;5112690;28;20398;-66
2023/08/12 07:00:55;;;;;;;31.73;17.52;;;;;;;;;;5112320;28;20050;-66
2023/08/12 07:03:21;;;;;;;25.92;17.30;;;;;;;;;;5111998;28;20093;-66
2023/08/12 07:05:47;;;;;;;27.38;16.88;;;;;;;;;;5112636;28;20040;-66
2023/08/12 07:08:13;;;;;;;28.15;16.67;;;;;;;;;;5103976;28;20036;-66
2023/08/12 07:10:39;;;;;;;28.52;16.08;;;;;;;;;;5092058;28;20108;-66
2023/08/12 07:13:05;;;;;;;29.92;17.52;;;;;;;;;;5091748;28;20098;-66
2023/08/12 07:15:31;;;;;;;26.10;15.73;;;;;;;;;;5091542;28;20051;-66
2023/08/12 07:17:57;;;;;;;30.88;17.42;;;;;;;;;;5091965;28;20087;-66
2023/08/12 07:20:26;;;;;;;29.13;17.38;;;;;;;;;;5092090;28;20089;-66
2023/08/12 07:22:52;;;;;;;27.38;17.40;;;;;;;;;;5091171;28;20051;-66
2023/08/12 07:25:18;;;;;;;27.77;17.10;;;;;;;;;;5093249;28;20043;-66
2023/08/12 07:27:44;;;;;;;27.35;17.35;;;;;;;;;;5112172;28;20411;-66
2023/08/12 07:30:11;;;;;;;27.23;18.23;;;;;;;;;;5111142;28;20043;-66
2023/08/12 07:32:38;;;;;;;26.90;17.83;;;;;;;;;;5111680;28;20043;-66
2023/08/12 07:35:05;;;;;;;32.20;18.38;;;;;;;;;;5112007;28;20046;-66
2023/08/12 07:37:32;;;;;;;28.63;17.25;;;;;;;;;;5111615;28;20089;-66
2023/08/12 07:39:58;;;;;;;25.70;18.38;;;;;;;;;;5111559;28;20044;-66
2023/08/12 07:42:24;;;;;;;26.42;17.48;;;;;;;;;;5111566;28;20494;-66
2023/08/12 07:44:50;;;;;;;28.15;17.83;;;;;;;;;;5111260;28;20124;-66
2023/08/12 07:47:16;;;;;;;24.92;18.02;;;;;;;;;;5111902;28;20497;-66
2023/08/12 07:49:43;;;;;;;25.67;17.20;;;;;;;;;;5111723;28;20065;-66
2023/08/12 07:52:09;;;;;;;24.48;17.10;;;;;;;;;;5111310;28;20108;-66
2023/08/12 07:54:35;;;;;;;30.02;18.25;;;;;;;;;;5111442;28;20047;-66
2023/08/12 07:57:02;;;;;;;27.80;18.83;;;;;;;;;;5111324;28;20090;-66
2023/08/12 07:59:28;;;;;;;29.65;19.15;;;;;;;;;;5111375;28;20079;-66
2023/08/12 08:01:54;;;;;;;28.33;17.85;;;;;;;;;;5111493;28;20426;-66
2023/08/12 08:04:20;;;;;;;27.52;17.90;;;;;;;;;;5111055;28;20085;-66
2023/08/12 08:06:46;;;;;;;26.88;17.52;;;;;;;;;;5111246;28;20052;-66
2023/08/12 08:09:12;;;;;;;25.88;16.98;;;;;;;;;;5111304;28;20036;-66
2023/08/12 08:11:38;;;;;;;26.55;18.23;;;;;;;;;;5111694;28;20043;-66
2023/08/12 08:14:04;;;;;;;24.23;17.60;;;;;;;;;;5110475;28;20093;-66
2023/08/12 08:16:30;;;;;;;24.80;15.40;;;;;;;;;;5111213;28;20047;-66
2023/08/12 08:18:56;;;;;;;22.23;16.65;;;;;;;;;;5110157;28;20048;-66
2023/08/12 08:21:22;;;;;;;23.33;16.45;;;;;;;;;;5110960;28;20122;-66
2023/08/12 08:23:48;;;;;;;24.55;16.58;;;;;;;;;;5110718;28;20039;-66
2023/08/12 08:26:17;;;;;;;25.00;16.92;;;;;;;;;;5110989;28;20168;-66
2023/08/12 08:28:43;;;;;;;22.08;16.48;;;;;;;;;;5110809;28;20740;-66
2023/08/12 08:31:09;;;;;;;26.80;17.27;;;;;;;;;;5109920;28;20113;-66
2023/08/12 08:33:35;;;;;;;25.35;17.95;;;;;;;;;;5110983;28;20032;-66
2023/08/12 08:36:01;;;;;;;25.63;17.52;;;;;;;;;;5110553;28;20040;-66
2023/08/12 08:38:27;;;;;;;24.08;16.70;;;;;;;;;;5110913;28;20047;-66
2023/08/12 08:40:54;;;;;;;28.15;18.88;;;;;;;;;;5110563;28;20054;-66
2023/08/12 08:43:24;;;;;;;24.60;17.17;;;;;;;;;;5110021;28;20040;-66
2023/08/12 08:45:53;;;;;;;25.65;17.98;;;;;;;;;;5110749;28;20197;-66
2023/08/12 08:48:22;;;;;;;24.35;17.77;;;;;;;;;;5110848;28;20040;-66
2023/08/12 08:50:50;;;;;;;24.60;17.35;;;;;;;;;;5110485;28;20037;-66
2023/08/12 08:53:16;;;;;;;21.00;15.65;;;;;;;;;;5110394;28;20121;-66
2023/08/12 08:55:42;;;;;;;22.63;16.48;;;;;;;;;;5110621;28;20123;-66
2023/08/12 08:58:08;;;;;;;26.42;17.85;;;;;;;;;;5110498;28;20122;-66
2023/08/12 09:00:35;;;;;;;21.70;16.23;;;;;;;;;;5110446;28;20512;-66
2023/08/12 09:03:02;;;;;;;13.30;9.98;;;;;;;;;;5110481;28;20039;-66
2023/08/12 09:05:29;;;;;;;15.68;7.95;;;;;;;;;;5109150;28;20039;-66
2023/08/12 09:07:56;;;;;;;9.90;6.43;;;;;;;;;;5114391;28;20062;-66
2023/08/12 09:10:24;;;;;;;7.82;5.78;;;;;;;;;;5114467;28;20044;-66
2023/08/12 09:12:52;;;;;;;10.18;5.72;;;;;;;;;;5113713;28;20047;-66
2023/08/12 09:15:18;;;;;;;9.05;5.18;;;;;;;;;;5114212;28;20043;-66
2023/08/12 09:17:45;;;;;;;8.38;5.10;;;;;;;;;;5114306;28;20050;-66
2023/08/12 09:20:11;;;;;;;10.10;4.90;;;;;;;;;;5113766;28;20039;-66
2023/08/12 09:22:38;;;;;;;10.30;5.07;;;;;;;;;;5113683;28;20051;-66
2023/08/12 09:25:04;;;;;;;9.88;5.22;;;;;;;;;;5114210;28;20031;-66
2023/08/12 09:27:31;;;;;;;9.23;4.68;;;;;;;;;;5113545;28;20078;-66
2023/08/12 09:29:57;;;;;;;11.70;4.45;;;;;;;;;;5113537;28;20053;-66
2023/08/12 09:32:24;;;;;;;10.98;3.80;;;;;;;;;;5114033;28;20126;-66
2023/08/12 09:34:53;;;;;;;9.40;4.82;;;;;;;;;;5113356;28;20065;-66
2023/08/12 09:37:20;;;;;;;14.27;5.20;;;;;;;;;;5146967;27;20912;-66
2023/08/12 09:39:47;;;;;;;14.98;5.00;;;;;;;;;;5113878;28;20084;-66
2023/08/12 09:42:14;;;;;;;6.68;4.10;;;;;;;;;;5113434;28;20097;-66
2023/08/12 09:44:41;;;;;;;8.35;4.20;;;;;;;;;;5113450;28;20041;-66
2023/08/12 09:47:10;;;;;;;8.15;4.63;;;;;;;;;;5113624;28;20040;-66
2023/08/12 09:49:36;;;;;;;8.68;4.45;;;;;;;;;;5113264;28;20057;-67
2023/08/12 09:52:03;;;;;;;11.52;4.03;;;;;;;;;;5113342;28;20119;-67
2023/08/12 09:54:31;;;;;;;9.23;4.60;;;;;;;;;;5113427;28;20044;-67
2023/08/12 09:57:01;;;;;;;9.27;5.07;;;;;;;;;;5113393;28;20083;-67
2023/08/12 09:59:32;;;;;;;8.13;4.70;;;;;;;;;;5113616;28;20090;-67
2023/08/12 10:01:58;;;;;;;8.65;5.13;;;;;;;;;;5113282;28;20047;-67
2023/08/12 10:04:27;;;;;;;9.75;5.50;;;;;;;;;;5112908;28;20118;-67
2023/08/12 10:06:53;;;;;;;8.50;5.13;;;;;;;;;;5113136;28;20531;-67
2023/08/12 10:09:20;;;;;;;8.65;6.07;;;;;;;;;;5096082;28;20028;-67
2023/08/12 10:11:46;;;;;;;11.95;5.57;;;;;;;;;;5125435;27;20413;-67
2023/08/12 10:14:13;;;;;;;6.38;5.32;;;;;;;;;;5092251;28;20599;-67
2023/08/12 10:16:39;;;;;;;7.80;6.25;;;;;;;;;;5092515;28;20064;-67
2023/08/12 10:19:06;;;;;;;11.68;5.85;;;;;;;;;;5090653;28;20049;-67
2023/08/12 10:21:32;;;;;;;8.15;5.53;;;;;;;;;;5092522;28;20089;-67
2023/08/12 10:23:59;;;;;;;3.10;2.03;;;;;;;;;;5092545;28;20371;-67
2023/08/12 10:26:25;;;;;;;2.70;2.08;;;;;;;;;;5103620;28;20482;-67
2023/08/12 10:28:51;;;;;;;3.30;2.42;;;;;;;;;;5112321;28;20474;-67
2023/08/12 10:31:19;;;;;;;1.10;1.00;;;;;;;;;;5112883;28;20091;-67
2023/08/12 10:33:48;;;;;;;1.13;0.88;;;;;;;;;;5112551;28;20039;-67
2023/08/12 10:36:15;;;;;;;1.65;0.95;;;;;;;;;;5112428;28;20497;-67
2023/08/12 10:38:41;;;;;;;1.77;0.90;;;;;;;;;;5112785;28;20039;-67
2023/08/12 10:41:17;;;;;;;1.02;0.90;;;;;;;;;;5112662;28;20043;-67
2023/08/12 10:43:50;;;;;;;1.20;1.00;;;;;;;;;;5112024;28;20351;-67
2023/08/12 10:46:16;;;;;;;;;;;;;;;;;;5112798;28;20080;-67
2023/08/12 10:48:56;;;;;;;1.92;1.20;;;;;;;;;;5112329;28;20335;-67
2023/08/12 10:51:39;;;;;;;1.48;1.10;;;;;;;;;;5112477;28;20144;-67
2023/08/12 10:54:20;;;;;;;1.10;0.90;;;;;;;;;;5112246;28;20054;-67
2023/08/12 10:57:10;;;;;;;2.15;1.15;;;;;;;;;;5112026;28;20067;-67
2023/08/12 10:59:45;;;;;;;2.20;1.33;;;;;;;;;;5112296;28;20044;-67
2023/08/12 11:02:22;;;;;;;1.20;1.10;;;;;;;;;;5112249;28;20044;-67
2023/08/12 11:04:52;;;;;;;2.42;1.48;;;;;;;;;;5111702;28;20059;-67
2023/08/12 11:07:18;;;;;;;1.55;1.10;;;;;;;;;;5111967;28;20035;-67
2023/08/12 11:09:45;;;;;;;2.33;1.25;;;;;;;;;;5091752;28;20036;-67
2023/08/12 11:12:11;;;;;;;1.90;1.27;;;;;;;;;;5091192;28;20135;-67
2023/08/12 11:14:53;;;;;;;1.95;1.30;;;;;;;;;;5091719;28;20055;-67
2023/08/12 11:17:19;;;;;;;1.20;1.10;;;;;;;;;;5091728;28;20115;-67
2023/08/12 11:19:46;;;;;;;1.08;1.00;;;;;;;;;;5091341;28;20046;-67
2023/08/12 11:22:12;;;;;;;3.40;1.60;;;;;;;;;;5091238;28;20044;-67
2023/08/12 11:24:41;;;;;;;1.05;0.95;;;;;;;;;;5091419;28;20051;-67
2023/08/12 11:27:10;;;;;;;2.78;1.00;;;;;;;;;;5107840;28;20047;-67
2023/08/12 11:29:38;;;;;;;1.48;1.05;;;;;;;;;;5111091;28;20401;-67
2023/08/12 11:32:05;;;;;;;1.30;1.17;;;;;;;;;;5111628;28;20100;-67
2023/08/12 11:34:32;;;;;;;2.30;1.35;;;;;;;;;;5111071;28;20115;-67
2023/08/12 11:36:58;;;;;;;2.20;1.60;;;;;;;;;;5111478;28;20114;-67
2023/08/12 11:39:25;;;;;;;2.83;2.00;;;;;;;;;;5111693;28;20039;-67
2023/08/12 11:41:51;;;;;;;2.38;1.60;;;;;;;;;;5111162;28;20046;-67
2023/08/12 11:44:17;;;;;;;1.80;1.50;;;;;;;;;;5111493;28;20046;-67
2023/08/12 11:46:43;;;;;;;2.90;2.00;;;;;;;;;;5111255;28;20083;-67
2023/08/12 11:49:09;;;;;;;5.18;2.65;;;;;;;;;;5111159;28;20036;-67
2023/08/12 11:51:35;;;;;;;3.25;2.00;;;;;;;;;;5111603;28;20047;-67
2023/08/12 11:54:02;;;;;;;2.97;2.67;;;;;;;;;;5111145;28;20529;-67
2023/08/12 11:56:28;;;;;;;1.48;1.38;;;;;;;;;;5111137;28;20123;-67
2023/08/12 11:58:54;;;;;;;1.58;1.30;;;;;;;;;;5111500;28;20036;-67
2023/08/12 12:01:22;;;;;;;0.60;0.60;;;;;;;;;;5111615;28;20632;-67
2023/08/12 12:03:52;;;;;;;1.70;0.90;;;;;;;;;;5110868;28;20050;-67
2023/08/12 12:06:18;;;;;;;1.23;0.80;;;;;;;;;;5111414;28;20389;-67
2023/08/12 12:08:47;;;;;;;1.25;0.98;;;;;;;;;;5099345;28;20040;-67
2023/08/12 12:11:14;;;;;;;2.40;1.63;;;;;;;;;;5090674;28;20035;-67
2023/08/12 12:13:40;;;;;;;2.55;1.27;;;;;;;;;;5090698;28;20781;-67
2023/08/12 12:16:10;;;;;;;3.10;1.40;;;;;;;;;;5123523;28;20060;-67
2023/08/12 12:18:36;;;;;;;2.05;1.38;;;;;;;;;;5090188;28;20056;-67
2023/08/12 12:21:02;;;;;;;4.47;1.40;;;;;;;;;;5090833;28;20036;-67
2023/08/12 12:23:29;;;;;;;1.50;1.40;;;;;;;;;;5090733;28;20519;-67
2023/08/12 12:26:02;;;;;;;3.60;1.60;;;;;;;;;;5097145;28;20044;-67
2023/08/12 12:28:28;;;;;;;2.65;1.50;;;;;;;;;;5144284;27;20047;-67
2023/08/12 12:30:54;;;;;;;4.07;1.38;;;;;;;;;;5111084;28;20047;-67
2023/08/12 12:33:21;;;;;;;3.17;1.33;;;;;;;;;;5110710;28;20051;-67
2023/08/12 12:35:47;;;;;;;2.47;1.48;;;;;;;;;;5110893;28;20054;-67
2023/08/12 12:38:14;;;;;;;4.28;1.52;;;;;;;;;;5110925;28;20129;-67
2023/08/12 12:40:40;;;;;;;4.47;1.55;;;;;;;;;;5144122;27;20047;-67
2023/08/12 12:43:06;;;;;;;3.97;1.60;;;;;;;;;;5114985;28;20599;-67
2023/08/12 12:45:32;;;;;;;5.65;2.20;;;;;;;;;;5115036;28;20027;-67
2023/08/12 12:47:58;;;;;;;3.47;1.55;;;;;;;;;;5114555;28;20043;-67
2023/08/12 12:50:24;;;;;;;4.25;1.58;;;;;;;;;;5114824;28;20040;-67
2023/08/12 12:52:50;;;;;;;3.67;1.40;;;;;;;;;;5114784;28;20042;-67
2023/08/12 12:55:16;;;;;;;4.28;1.70;;;;;;;;;;5114434;28;20123;-67
2023/08/12 12:57:42;;;;;;;6.45;2.03;;;;;;;;;;5114685;28;20051;-67
2023/08/12 13:00:11;;;;;;;5.93;1.98;;;;;;;;;;5114718;28;20040;-67
2023/08/12 13:02:37;;;;;;;6.25;1.60;;;;;;;;;;5114145;28;20682;-67
2023/08/12 13:05:03;;;;;;;6.82;2.10;;;;;;;;;;5114634;28;20119;-67
2023/08/12 13:07:29;;;;;;;6.30;1.60;;;;;;;;;;5112638;28;20032;-67
2023/08/12 13:09:55;;;;;;;5.65;1.73;;;;;;;;;;5093733;28;20028;-67
2023/08/12 13:12:21;;;;;;;4.65;1.70;;;;;;;;;;5093872;28;20047;-67
2023/08/12 13:14:47;;;;;;;5.38;2.30;;;;;;;;;;5093969;28;20055;-67
2023/08/12 13:17:13;;;;;;;5.78;1.80;;;;;;;;;;5093627;28;20040;-67
2023/08/12 13:19:39;;;;;;;4.50;1.70;;;;;;;;;;5093919;28;20051;-67
2023/08/12 13:22:05;;;;;;;6.20;2.00;;;;;;;;;;5093681;28;20068;-67
2023/08/12 13:24:31;;;;;;;6.72;1.70;;;;;;;;;;5093229;28;20493;-67
2023/08/12 13:26:57;;;;;;;8.90;2.30;;;;;;;;;;5109295;28;20122;-67
2023/08/12 13:29:24;;;;;;;8.95;1.73;;;;;;;;;;5114057;28;20051;-67
2023/08/12 13:31:50;;;;;;;5.85;1.73;;;;;;;;;;5113585;28;20039;-67
2023/08/12 13:34:17;;;;;;;6.90;1.77;;;;;;;;;;5113969;28;20051;-67
2023/08/12 13:36:43;;;;;;;6.60;2.10;;;;;;;;;;5113964;28;20040;-67
2023/08/12 13:39:10;;;;;;;5.97;1.95;;;;;;;;;;5113426;28;20074;-67
2023/08/12 13:41:36;;;;;;;4.90;1.63;;;;;;;;;;5113807;28;20530;-67
2023/08/12 13:44:03;;;;;;;3.63;1.52;;;;;;;;;;5113655;28;20040;-67
2023/08/12 13:46:29;;;;;;;9.20;2.00;;;;;;;;;;5113644;28;20169;-67
2023/08/12 13:48:55;;;;;;;7.57;1.80;;;;;;;;;;5113766;28;20136;-67
2023/08/12 13:51:21;;;;;;;5.50;1.38;;;;;;;;;;5113416;28;20085;-67
2023/08/12 13:53:47;;;;;;;6.50;1.40;;;;;;;;;;5113096;28;20044;-67
2023/08/12 13:56:13;;;;;;;6.18;1.85;;;;;;;;;;5113571;28;20043;-67
2023/08/12 13:58:39;;;;;;;5.60;1.50;;;;;;;;;;5113641;28;20035;-67
2023/08/12 14:01:05;;;;;;;4.82;1.80;;;;;;;;;;5113426;28;20394;-67
2023/08/12 14:03:32;;;;;;;5.35;1.70;;;;;;;;;;5112978;28;20129;-67
2023/08/12 14:05:58;;;;;;;5.75;1.65;;;;;;;;;;5113380;28;20397;-67
2023/08/12 14:08:24;;;;;;;5.95;1.75;;;;;;;;;;5112875;28;20050;-67
2023/08/12 14:10:50;;;;;;;6.38;1.90;;;;;;;;;;5112698;28;20040;-67
2023/08/12 14:13:16;;;;;;;8.80;1.95;;;;;;;;;;5112621;28;20087;-67
2023/08/12 14:15:43;;;;;;;5.97;1.52;;;;;;;;;;5113119;28;20075;-67
2023/08/12 14:18:09;;;;;;;5.78;1.73;;;;;;;;;;5112833;28;20042;-67
2023/08/12 14:20:35;;;;;;;7.80;1.60;;;;;;;;;;5113122;28;20458;-67
2023/08/12 14:23:01;;;;;;;6.43;2.08;;;;;;;;;;5112814;28;20096;-67
2023/08/12 14:25:27;;;;;;;4.22;1.65;;;;;;;;;;5112443;28;20037;-67
2023/08/12 14:27:53;;;;;;;8.40;1.90;;;;;;;;;;5112927;28;20058;-67